Time;durP1;ratioP1;P1;durP2;ratioP2;P2;SDS_P1;SDS_P2;PMS_P1;PMS_P2;Temp;Humidity;BMP_temperature;BMP_pressure;BME280_temperature;BME280_humidity;BME280_pressure;Samples;Min_cycle;Max_cycle;Signal;HPM_P1;HPM_P2
2022/06/28 00:02:13;;;;;;;7.38;3.85;;;;;;;12.65;83.77;101965.78;4990547;28;20048;-69
2022/06/28 00:04:38;;;;;;;5.82;4.20;;;;;;;12.63;84.17;101965.88;4995206;28;20050;-68
2022/06/28 00:07:04;;;;;;;7.70;4.38;;;;;;;12.61;84.45;101965.09;4997639;28;20057;-68
2022/06/28 00:09:29;;;;;;;7.82;4.70;;;;;;;12.57;84.63;101959.94;4989712;28;20034;-69
2022/06/28 00:11:54;;;;;;;7.60;4.32;;;;;;;12.58;84.63;101959.84;4985957;28;20033;-69
2022/06/28 00:17:04;;;;;;;7.85;4.45;;;;;;;12.55;84.86;101965.50;5001803;28;20053;-68
2022/06/28 00:19:29;;;;;;;4.97;4.25;;;;;;;12.50;84.80;101963.06;4985442;28;20494;-69
2022/06/28 00:21:55;;;;;;;5.57;4.05;;;;;;;12.49;84.35;101960.41;4986599;28;20173;-69
2022/06/28 00:24:22;;;;;;;5.10;4.03;;;;;;;12.45;84.28;101958.84;4986814;28;20108;-69
2022/06/28 00:26:48;;;;;;;4.38;3.65;;;;;;;12.42;84.38;101964.50;4985909;28;20046;-69
2022/06/28 00:29:14;;;;;;;8.35;4.03;;;;;;;12.35;84.37;101961.25;4986479;28;20331;-70
2022/06/28 00:31:41;;;;;;;4.97;3.67;;;;;;;12.28;84.54;101961.75;4986941;28;20483;-69
2022/06/28 00:34:06;;;;;;;9.05;4.25;;;;;;;12.26;85.29;101975.47;4999297;28;20370;-69
2022/06/28 00:36:32;;;;;;;6.70;4.80;;;;;;;12.27;86.15;101971.81;5001852;28;20038;-69
2022/06/28 00:38:58;;;;;;;5.60;4.82;;;;;;;12.27;85.86;101970.94;4985009;28;20052;-69
2022/06/28 00:41:23;;;;;;;8.35;5.13;;;;;;;12.25;87.11;101971.00;4986389;28;20046;-69
2022/06/28 00:43:49;;;;;;;6.60;5.07;;;;;;;12.25;86.94;101974.59;4998755;28;20044;-69
2022/06/28 00:46:15;;;;;;;7.50;5.47;;;;;;;12.25;86.08;101973.72;4986702;28;20038;-69
2022/06/28 00:48:40;;;;;;;11.00;5.22;;;;;;;12.24;86.34;101972.84;4989520;28;20068;-69
2022/06/28 00:51:08;;;;;;;10.15;4.75;;;;;;;12.22;86.34;101973.94;4990321;28;20030;-69
2022/06/28 00:53:34;;;;;;;9.60;5.40;;;;;;;12.20;85.90;101974.00;5004923;28;20129;-68
2022/06/28 00:55:59;;;;;;;7.97;5.03;;;;;;;12.20;86.37;101970.41;4990223;28;20120;-69
2022/06/28 00:58:24;;;;;;;7.68;4.45;;;;;;;12.18;86.01;101972.38;4989170;28;20051;-70
2022/06/28 01:00:50;;;;;;;6.32;4.50;;;;;;;12.18;86.03;101981.41;5004616;28;20184;-69
2022/06/28 01:03:18;;;;;;;7.20;5.07;;;;;;;12.18;86.53;101983.28;4997326;28;20085;-69
2022/06/28 01:05:46;;;;;;;8.40;5.53;;;;;;;12.16;86.47;101968.84;4989741;28;20050;-69
2022/06/28 01:08:12;;;;;;;7.88;5.47;;;;;;;12.11;87.45;101973.69;4989847;28;20042;-69
2022/06/28 01:10:38;;;;;;;6.75;4.70;;;;;;;12.08;86.34;101973.91;5004074;28;20492;-69
2022/06/28 01:13:05;;;;;;;5.88;5.28;;;;;;;12.08;86.50;101974.78;5003605;28;20023;-68
2022/06/28 01:15:32;;;;;;;9.13;4.97;;;;;;;12.09;86.79;101975.66;4992066;28;20040;-69
2022/06/28 01:18:03;;;;;;;10.73;5.28;;;;;;;12.07;87.16;101981.19;4992879;28;20029;-69
2022/06/28 01:20:41;;;;;;;10.02;4.38;;;;;;;12.07;86.72;101983.03;4989559;28;20508;-69
2022/06/28 01:23:16;;;;;;;10.55;6.20;;;;;;;12.07;87.92;101983.91;5004389;28;20085;-69
2022/06/28 01:25:44;;;;;;;6.85;5.75;;;;;;;12.07;87.16;101980.31;5003672;28;20034;-70
2022/06/28 01:28:11;;;;;;;7.38;5.00;;;;;;;12.04;87.68;101978.66;4987152;28;20033;-69
2022/06/28 01:30:36;;;;;;;8.63;5.97;;;;;;;12.05;87.86;101987.72;5004064;28;20026;-69
2022/06/28 01:33:07;;;;;;;12.20;5.88;;;;;;;12.03;87.56;101982.38;4999000;28;20026;-69
2022/06/28 01:35:33;;;;;;;6.93;5.30;;;;;;;12.03;87.03;101984.19;5005570;28;20598;-69
2022/06/28 01:38:00;;;;;;;9.25;5.28;;;;;;;12.02;87.22;101996.06;4989864;28;20046;-69
2022/06/28 01:40:26;;;;;;;5.85;4.35;;;;;;;11.99;86.69;102005.34;4987538;28;20494;-69
2022/06/28 01:42:52;;;;;;;8.73;5.30;;;;;;;11.95;87.61;101998.31;4987176;28;20049;-69
2022/06/28 01:45:17;;;;;;;12.55;6.28;;;;;;;11.94;88.26;102002.00;4986610;28;20041;-69
2022/06/28 01:47:44;;;;;;;7.60;5.68;;;;;;;11.89;88.09;101994.09;5003964;28;20038;-69
2022/06/28 01:50:31;;;;;;;7.38;5.22;;;;;;;11.91;87.06;102000.31;5003931;28;20053;-69
2022/06/28 01:52:57;;;;;;;8.02;5.18;;;;;;;11.90;86.89;102003.16;5003750;28;20034;-69
2022/06/28 01:55:52;;;;;;;9.60;5.20;;;;;;;11.88;86.63;101997.78;4986386;28;20030;-69
2022/06/28 01:58:36;;;;;;;7.38;5.63;;;;;;;11.87;87.05;101997.88;4999758;28;20126;-69
2022/06/28 02:01:01;;;;;;;6.85;5.40;;;;;;;11.84;87.21;102007.09;5003315;28;20125;-69
2022/06/28 02:03:27;;;;;;;6.80;5.13;;;;;;;11.83;86.97;102004.47;4990261;28;20080;-69
2022/06/28 02:06:03;;;;;;;8.07;5.28;;;;;;;11.81;86.79;101998.22;4987293;28;20137;-69
2022/06/28 02:08:28;;;;;;;7.40;5.20;;;;;;;11.80;86.83;102004.59;5003998;28;20034;-69
2022/06/28 02:10:59;;;;;;;9.05;5.70;;;;;;;11.78;87.24;102003.84;5002669;28;20465;-69
2022/06/28 02:13:28;;;;;;;8.68;5.57;;;;;;;11.75;86.36;101999.47;4986528;28;20029;-69
2022/06/28 02:15:55;;;;;;;5.88;5.22;;;;;;;11.71;87.27;102003.34;5003461;28;20118;-69
2022/06/28 02:18:21;;;;;;;8.05;4.90;;;;;;;11.68;86.88;102006.22;5003563;28;20112;-70
2022/06/28 02:20:47;;;;;;;10.60;5.30;;;;;;;11.66;86.20;102008.19;5002794;28;20029;-69
2022/06/28 02:23:13;;;;;;;6.18;5.18;;;;;;;11.63;86.21;102017.41;4988339;28;20164;-69
2022/06/28 02:25:38;;;;;;;10.18;4.97;;;;;;;11.60;86.67;102019.41;5002440;28;20080;-69
2022/06/28 02:28:04;;;;;;;8.60;5.90;;;;;;;11.59;87.53;102026.72;4987521;28;20109;-69
2022/06/28 02:30:29;;;;;;;9.15;5.30;;;;;;;11.57;86.38;102023.22;4988898;28;20033;-69
2022/06/28 02:32:55;;;;;;;6.53;5.55;;;;;;;11.54;87.19;102025.22;5009012;28;20033;-69
2022/06/28 02:40:49;;;;;;;7.40;5.38;;;;;;;11.42;87.89;102034.97;5002094;28;20030;-69
2022/06/28 02:43:15;;;;;;;9.82;5.78;;;;;;;11.40;88.39;102039.63;5002117;28;20464;-69
2022/06/28 02:45:42;;;;;;;7.88;5.38;;;;;;;11.36;88.41;102035.31;4988086;28;20034;-70
2022/06/28 02:48:08;;;;;;;11.30;5.10;;;;;;;11.36;87.45;102041.66;4988120;28;20121;-70
2022/06/28 02:50:34;;;;;;;6.35;5.57;;;;;;;11.34;87.82;102046.31;4986458;28;20029;-69
2022/06/28 02:52:59;;;;;;;7.35;5.47;;;;;;;11.32;87.86;102053.69;4986999;28;20034;-70
2022/06/28 02:55:25;;;;;;;9.77;5.25;;;;;;;11.32;87.63;102059.13;4988041;28;20023;-70
2022/06/28 02:57:50;;;;;;;11.18;5.82;;;;;;;11.32;88.09;102055.53;4996746;28;20116;-70
2022/06/28 03:00:18;;;;;;;9.98;5.82;;;;;;;11.31;88.27;102060.09;5003934;28;20034;-69
2022/06/28 03:02:46;;;;;;;8.38;5.65;;;;;;;11.29;87.93;102061.19;5007323;28;20054;-70
2022/06/28 03:05:16;;;;;;;9.25;5.72;;;;;;;11.25;88.25;102065.91;4986221;28;20509;-70
2022/06/28 03:07:43;;;;;;;9.32;5.30;;;;;;;11.21;88.29;102065.19;4989043;28;20044;-70
2022/06/28 03:10:11;;;;;;;9.95;5.10;;;;;;;11.20;87.35;102070.75;4997484;28;20112;-70
2022/06/28 03:12:36;;;;;;;8.25;5.30;;;;;;;11.16;87.85;102075.47;4985116;28;20069;-70
2022/06/28 03:15:03;;;;;;;9.25;5.05;;;;;;;11.15;88.01;102078.28;4985502;28;20038;-71
2022/06/28 03:17:29;;;;;;;8.70;5.50;;;;;;;11.10;88.90;102064.03;5001548;28;20030;-70
2022/06/28 03:19:54;;;;;;;9.60;5.35;;;;;;;11.09;88.54;102074.03;4985503;28;20045;-70
2022/06/28 03:22:20;;;;;;;7.85;5.22;;;;;;;11.07;88.04;102069.66;4987243;28;20109;-70
2022/06/28 03:24:46;;;;;;;10.00;5.00;;;;;;;11.06;88.07;102073.34;5002394;28;20045;-70
2022/06/28 03:27:13;;;;;;;7.22;4.72;;;;;;;11.03;88.63;102073.50;4985562;28;20018;-70
2022/06/28 03:29:38;;;;;;;10.52;5.47;;;;;;;11.04;88.23;102078.84;5001268;28;20054;-70
2022/06/28 03:32:07;;;;;;;7.32;4.75;;;;;;;11.04;88.11;102086.16;5015188;28;20030;-70
2022/06/28 03:34:32;;;;;;;11.43;5.70;;;;;;;11.04;88.74;102087.03;4998297;28;20042;-70
2022/06/28 03:36:58;;;;;;;6.93;4.93;;;;;;;11.05;88.36;102086.09;5002068;28;20113;-70
2022/06/28 03:39:43;;;;;;;6.68;4.80;;;;;;;11.02;88.31;102083.50;4986630;28;20061;-70
2022/06/28 03:42:09;;;;;;;6.85;4.50;;;;;;;11.04;87.52;102094.31;4991800;28;20088;-71
2022/06/28 03:44:37;;;;;;;6.85;4.68;;;;;;;11.03;87.45;102087.13;4992765;28;20030;-70
2022/06/28 03:47:05;;;;;;;6.78;4.80;;;;;;;11.02;87.44;102097.13;4985489;28;20037;-70
2022/06/28 03:49:58;;;;;;;8.68;4.40;;;;;;;11.02;87.48;102098.97;5001567;28;20043;-70
2022/06/28 03:52:44;;;;;;;6.13;4.60;;;;;;;11.00;87.87;102093.59;5000813;28;20030;-70
2022/06/28 03:55:12;;;;;;;9.30;4.43;;;;;;;11.02;87.24;102093.53;4987137;28;20474;-70
2022/06/28 03:57:43;;;;;;;13.10;4.55;;;;;;;11.02;87.73;102096.25;5001219;28;20026;-70
2022/06/28 04:00:11;;;;;;;9.20;4.50;;;;;;;10.99;87.52;102094.56;5000752;28;20042;-70
2022/06/28 04:02:42;;;;;;;9.82;4.38;;;;;;;10.97;87.38;102091.06;5006144;28;20041;-70
2022/06/28 04:05:15;;;;;;;12.00;4.53;;;;;;;10.94;87.88;102089.38;4985143;28;20058;-70
2022/06/28 04:07:41;;;;;;;6.25;4.20;;;;;;;10.94;87.72;102094.81;4985016;28;20465;-70
2022/06/28 04:10:07;;;;;;;6.53;4.30;;;;;;;10.94;87.53;102094.81;4984267;28;20030;-70
2022/06/28 04:12:33;;;;;;;6.53;4.22;;;;;;;10.97;87.31;102097.38;5001547;28;20035;-70
2022/06/28 04:15:12;;;;;;;7.70;4.15;;;;;;;11.01;87.55;102102.69;5000716;28;20426;-69
2022/06/28 04:17:37;;;;;;;6.85;4.35;;;;;;;11.01;87.79;102102.69;4985487;28;20061;-70
2022/06/28 04:20:21;;;;;;;8.80;3.97;;;;;;;11.02;87.73;102096.25;4986852;28;20093;-71
2022/06/28 04:22:57;;;;;;;8.70;4.30;;;;;;;11.02;87.55;102097.13;4985186;28;20400;-70
2022/06/28 04:25:23;;;;;;;7.20;3.75;;;;;;;11.04;87.46;102097.03;4990033;28;20060;-70
2022/06/28 04:27:50;;;;;;;10.15;4.75;;;;;;;11.05;87.90;102105.16;4988620;28;20035;-70
2022/06/28 04:30:15;;;;;;;8.07;4.20;;;;;;;11.07;87.61;102105.06;4988511;28;20125;-70
2022/06/28 04:32:47;;;;;;;11.60;4.18;;;;;;;11.09;87.88;102111.28;5010672;28;20033;-71
2022/06/28 04:35:14;;;;;;;8.15;3.95;;;;;;;11.12;87.37;102106.56;4989033;28;20037;-70
2022/06/28 04:37:40;;;;;;;6.65;4.20;;;;;;;11.13;87.30;102107.44;4972969;28;20026;-71
2022/06/28 04:40:17;;;;;;;7.20;3.92;;;;;;;11.16;87.29;102104.56;5004745;28;20034;-71
2022/06/28 04:42:51;;;;;;;8.68;4.20;;;;;;;11.19;87.23;102096.19;5016041;28;20045;-71
2022/06/28 04:45:17;;;;;;;7.50;3.50;;;;;;;11.23;86.77;102100.50;5003766;28;20176;-71
2022/06/28 04:47:57;;;;;;;8.68;3.67;;;;;;;11.28;86.93;102094.81;4990397;28;20057;-71
2022/06/28 04:50:22;;;;;;;6.38;3.17;;;;;;;11.30;86.67;102093.78;4988469;28;20034;-70
2022/06/28 04:52:49;;;;;;;8.00;3.75;;;;;;;11.34;86.99;102100.81;5005011;28;20561;-71
2022/06/28 04:55:16;;;;;;;7.95;3.80;;;;;;;11.39;87.07;102103.28;5004361;28;20508;-70
2022/06/28 04:57:48;;;;;;;6.90;3.33;;;;;;;11.41;86.69;102110.38;4987936;28;20374;-70
2022/06/28 05:00:17;;;;;;;8.40;3.40;;;;;;;11.45;86.63;102111.97;4987759;28;20034;-71
2022/06/28 05:02:48;;;;;;;8.67;3.60;;;;;;;11.50;86.00;102100.81;4996883;28;20520;-70
2022/06/28 05:05:32;;;;;;;8.60;3.00;;;;;;;11.53;86.61;102103.38;4988788;28;20791;-70
2022/06/28 05:07:58;;;;;;;8.75;3.67;;;;;;;11.55;86.52;102104.16;4988718;28;20062;-71
2022/06/28 05:10:29;;;;;;;8.63;3.42;;;;;;;11.62;86.29;102112.91;5013343;28;20121;-71
2022/06/28 05:13:14;;;;;;;7.80;3.70;;;;;;;11.65;86.46;102108.13;5004199;28;20046;-70
2022/06/28 05:15:40;;;;;;;8.63;3.95;;;;;;;11.69;86.18;102114.28;4991756;28;20038;-70
2022/06/28 05:18:09;;;;;;;6.68;3.30;;;;;;;11.72;86.92;102112.28;5008006;28;20093;-70
2022/06/28 05:20:35;;;;;;;9.48;3.67;;;;;;;11.75;86.02;102106.66;4991169;28;20128;-70
2022/06/28 05:23:01;;;;;;;6.30;3.40;;;;;;;11.80;86.34;102110.94;4988790;28;20096;-70
2022/06/28 05:25:45;;;;;;;11.50;3.55;;;;;;;11.84;86.02;102105.25;4989285;28;20382;-70
2022/06/28 05:28:10;;;;;;;9.27;3.60;;;;;;;11.88;86.04;102111.41;5003529;28;20038;-71
2022/06/28 05:30:36;;;;;;;6.43;3.03;;;;;;;11.96;85.72;102111.88;5003952;28;20102;-70
2022/06/28 05:33:03;;;;;;;11.45;3.65;;;;;;;12.07;85.96;102109.38;4995320;28;20321;-71
2022/06/28 05:35:29;;;;;;;10.18;4.18;;;;;;;12.08;86.18;102102.09;4989988;28;20085;-71
2022/06/28 05:37:54;;;;;;;12.40;3.67;;;;;;;12.10;86.40;102100.16;4987428;28;20038;-70
2022/06/28 05:40:20;;;;;;;11.02;3.95;;;;;;;12.11;86.84;102099.19;4989616;28;20038;-70
2022/06/28 05:42:45;;;;;;;7.63;3.92;;;;;;;12.16;86.90;102099.78;4986995;28;20034;-70
2022/06/28 05:45:11;;;;;;;10.23;4.40;;;;;;;12.21;86.73;102105.84;5003240;28;20026;-70
2022/06/28 05:47:36;;;;;;;8.20;4.00;;;;;;;12.25;87.06;102100.13;4989436;28;20026;-71
2022/06/28 05:50:02;;;;;;;14.55;4.22;;;;;;;12.30;87.05;102083.47;5004268;28;20045;-71
2022/06/28 05:52:27;;;;;;;12.10;3.67;;;;;;;12.35;86.77;102089.53;4989294;28;20045;-71
2022/06/28 05:54:53;;;;;;;9.57;3.70;;;;;;;12.40;86.38;102086.53;5003440;28;20442;-70
2022/06/28 05:57:18;;;;;;;9.27;3.53;;;;;;;12.44;85.92;102086.25;5003320;28;20387;-71
2022/06/28 05:59:43;;;;;;;14.43;3.53;;;;;;;12.50;86.89;102085.03;5003498;28;20049;-71
2022/06/28 06:02:09;;;;;;;9.45;3.85;;;;;;;12.52;87.35;102083.06;5006852;28;20068;-71
2022/06/28 06:04:34;;;;;;;10.00;3.95;;;;;;;12.56;86.70;102079.19;4998580;28;20049;-70
2022/06/28 06:07:00;;;;;;;8.85;3.60;;;;;;;12.64;86.76;102090.50;4989606;28;20088;-71
2022/06/28 06:09:25;;;;;;;7.45;2.85;;;;;;;12.67;85.74;102092.16;4986898;28;20097;-70
2022/06/28 06:11:50;;;;;;;9.07;3.90;;;;;;;12.70;85.74;102089.25;5005525;28;20030;-69
2022/06/28 06:14:16;;;;;;;10.25;3.20;;;;;;;12.73;85.98;102103.59;5014334;28;20160;-71
2022/06/28 06:16:45;;;;;;;9.70;3.50;;;;;;;12.80;85.30;102095.91;4987339;28;20031;-71
2022/06/28 06:19:10;;;;;;;6.13;2.83;;;;;;;12.86;85.00;102097.38;5003233;28;20018;-71
2022/06/28 06:21:36;;;;;;;14.70;3.42;;;;;;;12.88;84.62;102095.44;5010292;28;20037;-71
2022/06/28 06:24:02;;;;;;;6.93;2.72;;;;;;;12.93;84.87;102091.44;5023550;28;20129;-72
2022/06/28 06:26:50;;;;;;;7.13;3.35;;;;;;;12.98;84.74;102102.94;4987703;28;20417;-71
2022/06/28 06:29:16;;;;;;;9.55;3.20;;;;;;;13.01;84.96;102097.31;5002764;28;20034;-71
2022/06/28 06:31:41;;;;;;;8.85;3.10;;;;;;;13.07;84.28;102100.63;4987255;28;20044;-71
2022/06/28 06:34:29;;;;;;;16.45;2.67;;;;;;;13.15;85.62;102109.19;4979574;28;20052;-71
2022/06/28 06:37:01;;;;;;;15.30;2.90;;;;;;;13.20;84.77;102109.81;4995066;28;20040;-70
2022/06/28 06:39:26;;;;;;;11.95;3.10;;;;;;;13.21;82.87;102111.56;5002331;28;20022;-70
2022/06/28 06:41:54;;;;;;;12.35;2.70;;;;;;;13.25;82.66;102107.69;5005889;28;20065;-70
2022/06/28 06:44:19;;;;;;;13.40;2.75;;;;;;;13.28;82.38;102108.34;5012986;28;20038;-70
2022/06/28 06:46:49;;;;;;;8.55;2.42;;;;;;;13.35;82.93;102113.44;5015009;28;20527;-70
2022/06/28 06:49:17;;;;;;;14.65;2.53;;;;;;;13.40;81.31;102111.31;5000784;28;20026;-71
2022/06/28 06:51:44;;;;;;;12.25;3.22;;;;;;;13.46;82.24;102111.78;4985984;28;20027;-70
2022/06/28 06:54:11;;;;;;;10.48;2.60;;;;;;;13.47;81.35;102112.66;4986758;28;20137;-70
2022/06/28 06:56:38;;;;;;;9.63;2.40;;;;;;;13.51;81.94;102119.69;5002706;28;20489;-70
2022/06/28 06:59:04;;;;;;;11.07;2.38;;;;;;;13.57;81.03;102116.56;4987058;28;20457;-70
2022/06/28 07:01:32;;;;;;;11.60;2.45;;;;;;;13.63;81.40;102128.97;4986905;28;20034;-71
2022/06/28 07:03:58;;;;;;;11.02;2.85;;;;;;;13.66;80.35;102129.66;5016776;28;20037;-70
2022/06/28 07:06:24;;;;;;;10.00;2.85;;;;;;;13.72;79.98;102122.91;5001311;28;20510;-70
2022/06/28 07:08:51;;;;;;;8.05;2.60;;;;;;;13.76;79.85;102121.72;4985057;28;20046;-70
2022/06/28 07:11:17;;;;;;;12.98;3.28;;;;;;;13.79;78.79;102122.38;4984328;28;20042;-70
2022/06/28 07:13:43;;;;;;;8.65;2.50;;;;;;;13.89;80.38;102129.97;4999601;28;20435;-71
2022/06/28 07:16:09;;;;;;;9.52;2.50;;;;;;;13.94;80.36;102125.97;5001704;28;20528;-70
2022/06/28 07:18:34;;;;;;;7.78;2.78;;;;;;;14.01;79.22;102123.69;5000611;28;20061;-70
2022/06/28 07:21:00;;;;;;;12.82;3.15;;;;;;;14.10;77.95;102125.81;4987088;28;20042;-71
2022/06/28 07:23:26;;;;;;;8.40;2.72;;;;;;;14.17;76.45;102127.16;5001374;28;20109;-70
2022/06/28 07:25:51;;;;;;;9.10;2.55;;;;;;;14.23;76.51;102123.16;4986258;28;20038;-70
2022/06/28 07:28:17;;;;;;;8.27;2.70;;;;;;;14.28;76.83;102118.25;5000418;28;20041;-70
2022/06/28 07:30:43;;;;;;;7.63;2.83;;;;;;;14.35;76.69;102121.44;4986219;28;20449;-70
2022/06/28 07:33:09;;;;;;;14.88;3.03;;;;;;;14.40;76.09;102122.88;5013455;28;20034;-71
2022/06/28 07:35:35;;;;;;;6.30;2.33;;;;;;;14.49;75.83;102121.41;4984984;28;20065;-69
2022/06/28 07:38:01;;;;;;;9.95;2.90;;;;;;;14.56;76.16;102125.47;5001712;28;20393;-69
2022/06/28 07:40:44;;;;;;;7.50;2.33;;;;;;;14.63;73.75;102126.81;4986571;28;20049;-69
2022/06/28 07:43:28;;;;;;;11.25;3.38;;;;;;;14.71;74.05;102120.81;4985806;28;20056;-70
2022/06/28 07:46:03;;;;;;;5.43;1.85;;;;;;;14.80;71.74;102125.63;5001941;28;20133;-70
2022/06/28 07:48:30;;;;;;;8.50;1.95;;;;;;;14.92;72.84;102123.88;4985797;28;20030;-70
2022/06/28 07:53:40;;;;;;;4.80;1.65;;;;;;;15.03;74.56;102121.28;5000834;28;20041;-70
2022/06/28 07:56:15;;;;;;;8.77;2.47;;;;;;;15.14;74.52;102120.50;5000209;28;20469;-69
2022/06/28 07:58:41;;;;;;;10.95;2.40;;;;;;;15.23;73.90;102120.72;5000245;28;20030;-70
2022/06/28 08:01:11;;;;;;;8.45;2.08;;;;;;;15.34;75.44;102119.06;5004537;28;20030;-69
2022/06/28 08:06:20;;;;;;;6.35;2.40;;;;;;;15.59;73.13;102113.56;5097302;27;20895;-70
2022/06/28 08:08:50;;;;;;;5.32;2.20;;;;;;;15.92;74.45;102115.72;5098863;28;20086;-69
2022/06/28 08:11:16;;;;;;;7.00;2.33;;;;;;;16.39;70.66;102110.38;5084313;28;20393;-70
2022/06/28 08:13:41;;;;;;;4.82;2.10;;;;;;;17.16;71.37;102107.97;5099473;28;20093;-70
2022/06/28 08:16:08;;;;;;;7.07;1.55;;;;;;;17.69;63.52;102113.78;5099222;28;20402;-70
2022/06/28 08:18:33;;;;;;;6.72;2.10;;;;;;;18.08;59.46;102107.72;5098957;28;20035;-69
2022/06/28 08:20:59;;;;;;;7.07;1.80;;;;;;;18.61;65.01;102105.03;5082209;28;20035;-70
2022/06/28 08:23:25;;;;;;;8.40;1.58;;;;;;;19.13;65.76;102105.13;5098795;28;20032;-70
2022/06/28 08:25:51;;;;;;;7.57;1.98;;;;;;;19.86;60.95;102106.81;5097703;28;20085;-70
2022/06/28 08:28:17;;;;;;;3.28;1.38;;;;;;;20.32;55.97;102096.13;5081269;28;20095;-70
2022/06/28 08:30:42;;;;;;;3.95;1.40;;;;;;;20.84;57.66;102091.19;5082540;28;20040;-69
2022/06/28 08:33:09;;;;;;;8.52;1.50;;;;;;;21.01;53.65;102086.81;5093634;28;20043;-70
2022/06/28 08:35:34;;;;;;;6.30;1.70;;;;;;;21.50;55.30;102088.44;5087016;28;20039;-69
2022/06/28 08:38:01;;;;;;;5.90;1.65;;;;;;;22.06;56.20;102084.63;5081858;28;20036;-69
2022/06/28 08:40:27;;;;;;;7.25;1.73;;;;;;;22.29;50.51;102084.19;5082715;28;20032;-70
2022/06/28 08:42:55;;;;;;;5.75;1.58;;;;;;;22.60;51.16;102085.53;5089472;28;20122;-70
2022/06/28 08:45:22;;;;;;;3.22;1.55;;;;;;;22.80;49.85;102082.56;5082371;28;20067;-69
2022/06/28 08:47:51;;;;;;;6.97;1.80;;;;;;;22.91;49.67;102074.03;5083588;28;20459;-70
2022/06/28 08:50:37;;;;;;;5.20;1.45;;;;;;;23.17;52.83;102072.16;5082492;28;20036;-70
2022/06/28 08:53:08;;;;;;;4.00;1.52;;;;;;;23.45;50.44;102068.28;5084177;28;20040;-70
2022/06/28 08:55:36;;;;;;;5.27;1.57;;;;;;;23.63;49.51;102064.38;5082543;28;20055;-69
2022/06/28 08:58:05;;;;;;;4.70;1.42;;;;;;;23.60;46.11;102069.44;5082549;28;20111;-69
2022/06/28 09:00:30;;;;;;;5.85;1.13;;;;;;;23.64;47.13;102066.19;5083507;28;20040;-70
2022/06/28 09:02:56;;;;;;;4.28;0.93;;;;;;;23.95;45.58;102071.16;5092498;28;20459;-70
2022/06/28 09:05:25;;;;;;;6.97;1.40;;;;;;;23.99;47.25;102074.47;5088079;28;20440;-70
2022/06/28 09:07:52;;;;;;;5.72;1.30;;;;;;;24.14;48.34;102073.63;5082384;28;20089;-70
2022/06/28 09:10:18;;;;;;;3.97;1.08;;;;;;;24.22;46.42;102064.44;5093604;28;20036;-70
2022/06/28 09:12:54;;;;;;;3.08;1.27;;;;;;;24.04;45.62;102067.34;5081967;28;20016;-70
2022/06/28 09:15:23;;;;;;;3.83;1.20;;;;;;;24.20;47.93;102063.72;5080007;28;20059;-70
2022/06/28 09:17:54;;;;;;;3.03;1.05;;;;;;;24.42;44.80;102054.75;5068655;28;20052;-69
2022/06/28 09:20:20;;;;;;;8.18;1.65;;;;;;;24.98;47.96;102059.63;5068320;28;20123;-70
2022/06/28 09:22:46;;;;;;;5.55;1.20;;;;;;;24.76;41.04;102050.06;5068460;28;20470;-70
2022/06/28 09:25:30;;;;;;;3.63;0.90;;;;;;;25.17;47.43;102054.56;5068153;28;20472;-69
2022/06/28 09:27:58;;;;;;;4.43;1.20;;;;;;;25.28;42.69;102046.91;5067930;28;20032;-70
2022/06/28 09:30:25;;;;;;;4.28;1.00;;;;;;;25.33;43.48;102050.88;5067485;28;20024;-71
2022/06/28 09:32:51;;;;;;;4.63;1.08;;;;;;;25.49;43.85;102052.72;5088048;28;20070;-69
2022/06/28 09:35:16;;;;;;;4.95;1.20;;;;;;;25.48;42.40;102042.63;5075160;28;20198;-70
2022/06/28 09:37:47;;;;;;;4.20;1.23;;;;;;;25.54;43.56;102039.13;5068499;28;20036;-70
2022/06/28 09:40:21;;;;;;;2.90;0.88;;;;;;;25.52;44.60;102032.88;5068247;28;20075;-71
2022/06/28 09:43:05;;;;;;;4.65;1.25;;;;;;;25.76;46.00;102031.91;5066524;28;20191;-70
2022/06/28 09:45:30;;;;;;;4.38;1.23;;;;;;;25.61;44.22;102033.72;5068944;28;20040;-71
2022/06/28 09:47:56;;;;;;;3.40;0.80;;;;;;;25.83;43.89;102034.81;5068154;28;20028;-70
2022/06/28 09:50:23;;;;;;;1.85;0.80;;;;;;;25.98;42.69;102032.16;5067650;28;20091;-70
2022/06/28 09:52:49;;;;;;;3.42;0.90;;;;;;;26.26;42.76;102022.19;5068091;28;20028;-70
2022/06/28 09:55:16;;;;;;;4.50;1.30;;;;;;;26.43;43.38;102022.94;5067683;28;20043;-69
2022/06/28 09:57:44;;;;;;;3.70;1.15;;;;;;;26.74;43.09;102019.22;5067741;28;20020;-71
2022/06/28 10:00:12;;;;;;;4.60;1.00;;;;;;;26.77;39.65;102013.25;5066954;28;20421;-71
2022/06/28 10:02:39;;;;;;;5.63;1.25;;;;;;;26.49;39.38;102015.75;5074329;28;20052;-70
2022/06/28 10:05:05;;;;;;;4.40;1.15;;;;;;;26.48;39.77;102009.28;5075887;28;20048;-70
2022/06/28 10:07:31;;;;;;;3.95;1.00;;;;;;;26.48;41.35;102014.00;5068134;28;20460;-69
2022/06/28 10:09:58;;;;;;;3.05;1.13;;;;;;;26.56;42.72;102016.75;5068041;28;20115;-69
2022/06/28 10:15:17;;;;;;;2.17;1.00;;;;;;;26.57;43.37;102012.88;5056302;28;20052;-70
2022/06/28 10:18:01;;;;;;;7.57;1.38;;;;;;;26.77;41.73;102018.84;5068325;28;20467;-69
2022/06/28 10:20:32;;;;;;;8.55;1.60;;;;;;;26.66;38.51;102007.03;5066861;28;20029;-69
2022/06/28 10:23:24;;;;;;;4.20;1.00;;;;;;;26.99;40.97;102005.84;5067442;28;20222;-70
2022/06/28 10:26:14;;;;;;;3.25;1.17;;;;;;;27.07;41.71;102006.63;5077017;28;20040;-70
2022/06/28 10:29:09;;;;;;;3.70;1.25;;;;;;;27.09;42.45;101998.06;5083798;28;20044;-69
2022/06/28 10:31:42;;;;;;;4.53;1.40;;;;;;;27.07;42.07;101997.38;5058104;28;20071;-70
2022/06/28 10:34:14;;;;;;;3.25;1.13;;;;;;;27.22;38.44;101998.28;5083363;28;20421;-70
2022/06/28 10:36:55;;;;;;;6.07;1.45;;;;;;;27.40;39.11;101984.78;5067391;28;20036;-69
2022/06/28 10:39:31;;;;;;;2.60;1.20;;;;;;;27.45;38.85;101985.06;5067394;28;20475;-69
2022/06/28 10:41:59;;;;;;;4.05;1.00;;;;;;;27.55;38.28;101981.09;5066388;28;20040;-69
2022/06/28 10:44:27;;;;;;;5.95;1.27;;;;;;;27.57;38.33;101979.84;5066582;28;20081;-70
2022/06/28 10:47:05;;;;;;;6.50;1.30;;;;;;;27.42;38.08;101974.28;5067473;28;20474;-69
2022/06/28 10:49:56;;;;;;;3.65;1.15;;;;;;;27.56;39.59;101975.31;5067536;28;20565;-70
2022/06/28 10:52:35;;;;;;;4.00;0.90;;;;;;;27.64;37.96;101972.41;5058194;28;20051;-70
2022/06/28 10:55:03;;;;;;;4.60;1.17;;;;;;;27.92;40.51;101968.88;5067558;28;20122;-69
2022/06/28 10:57:37;;;;;;;3.72;1.40;;;;;;;28.23;38.63;101960.16;5066931;28;20747;-69
2022/06/28 11:00:07;;;;;;;2.83;1.05;;;;;;;28.41;37.83;101965.31;5067258;28;20483;-72
2022/06/28 11:02:51;;;;;;;3.38;1.30;;;;;;;28.69;40.22;101962.53;5074263;28;20233;-70
2022/06/28 11:05:18;;;;;;;5.20;1.55;;;;;;;28.85;36.07;101964.16;5073695;28;20049;-69
2022/06/28 11:07:57;;;;;;;3.67;1.17;;;;;;;29.04;36.02;101962.59;5066855;28;20442;-69
2022/06/28 11:10:22;;;;;;;5.93;1.48;;;;;;;28.96;36.59;101955.22;5066501;28;20040;-70
2022/06/28 11:12:48;;;;;;;3.95;1.20;;;;;;;28.73;35.19;101952.66;5066485;28;20036;-69
2022/06/28 11:15:25;;;;;;;2.63;0.98;;;;;;;28.66;35.67;101937.72;5064964;28;20033;-70
2022/06/28 11:17:51;;;;;;;2.75;1.02;;;;;;;28.42;35.50;101930.66;5067353;28;20040;-69
2022/06/28 11:20:23;;;;;;;3.53;1.05;;;;;;;28.60;36.32;101933.81;5078054;28;20063;-70
2022/06/28 11:22:50;;;;;;;4.28;1.13;;;;;;;28.77;37.37;101939.09;5069246;28;20032;-70
2022/06/28 11:25:24;;;;;;;5.57;1.35;;;;;;;28.62;37.64;101933.59;5066406;28;20395;-70
2022/06/28 11:27:57;;;;;;;2.25;1.00;;;;;;;28.02;36.26;101937.78;5066003;28;20376;-69
2022/06/28 11:30:27;;;;;;;4.97;1.55;;;;;;;28.11;37.74;101933.78;5065702;28;20040;-70
2022/06/28 11:32:54;;;;;;;2.88;0.98;;;;;;;28.01;38.82;101925.72;5065048;28;20073;-69
2022/06/28 11:35:27;;;;;;;2.70;1.10;;;;;;;27.65;39.22;101918.22;5065775;28;20036;-69
2022/06/28 11:37:59;;;;;;;3.17;1.35;;;;;;;27.56;37.73;101925.00;5082116;28;20516;-70
2022/06/28 11:40:26;;;;;;;4.93;1.20;;;;;;;27.70;37.31;101918.50;5078841;28;20037;-70
2022/06/28 11:43:02;;;;;;;3.88;1.23;;;;;;;28.16;37.17;101920.03;5066059;28;20209;-70
2022/06/28 11:45:34;;;;;;;4.03;1.10;;;;;;;28.38;38.33;101912.53;5065541;28;20106;-70
2022/06/28 11:48:09;;;;;;;3.78;1.10;;;;;;;28.82;39.29;101915.03;5067233;28;20109;-69
2022/06/28 11:50:42;;;;;;;5.28;1.10;;;;;;;28.83;37.89;101919.53;5066333;28;20041;-70